Airfield :
LOGIN :

Register | Disclaimer

   EN    FR    IT 

 










Legend :    VFR   Marginal VFR   IFR   Intensive IFR   Very Intensive IFR
Visi :
Ceiling :
>= 8 km
>= 3000ft
5 to 8 km
1000 to 3000 ft
1500m to 5 km
500 to 1000 ft
800 to 1500m
200 to 500 ft
< 800m
< 200 ft
Symbols :   Thunderstorms  Fog  Heavy snow  Heavy precipitations  Wind > 20 kt
SIGMETs :     Misc.  Thunderstorms  Icing  Turbulence  Mountain Waves  Volcanic Ashes






- Airport Elevation : 13 ft
- IATA code : OST


EBOS - Oostend bruges Int.

CURRENT METAR :
  • 200920Z 31003KT 280V350 0500 R08/0650N R26/0800N FG BKN002 07/06 Q1019 BECMG 1500 BR SCT002

EXPIRED METARs :
  • 200850Z VRB02KT 0400 R08/0500N R26/0600N FG BKN001 07/06 Q1019 BECMG 1500 BR SCT001
  • 200820Z VRB02KT 0250 R08/0325N R26/0375N FG BKN001 07/07 Q1019 BECMG 1500 BR SCT001
  • 200750Z VRB01KT 0200 R08/0275N R26/0300N FG BKN001 06/06 Q1019 BECMG 1500 BR SCT001
  • 200720Z VRB01KT 0150 R08/0250N R26/0300N FG BKN001 06/06 Q1019 NOSIG
  • 200650Z VRB02KT 0100 R08/0250N R26/0300N FG BKN001 05/05 Q1019 NOSIG

TAF TAF EBOS
Valid from the 20 at 06:00 until the 21 at 12:00 UTC


200510Z 2006/2112 35003KT 1500 BR SCT002
TEMPO 2006/2009 0200 FG BKN001
BECMG 2008/2010 6000 NSW
PROB30
TEMPO 2009/2021 1200 BCFG BKN004
BECMG 2020/2022 2500 BR
PROB40
TEMPO 2021/2106 0800 FG BKN002
BECMG 2106/2108 8000 NSW BKN012



MET'MAP, your aeronautical weather chart ! - Copyright ORBIFLY December 2007 - Disclaimer

ORBIFLY MET'MAP TEAM :

Programming & Development : Alexandra Zaïnal
Concept & original design : Baudouin d'Aumeries
Assistance for programming : Marc-Olivier Méhu
Technical & hardware support : Manuel Goepfert

Contact : metmap@orbifly.com




SOURCES & CREDITS :

   NOAA